KNGU/NGU METAR and TAF weather

Enter ICAO airport designator
Station Type Date Time Source
KNGU METAR 2019/06/26 04:59 UTC NOAA

KNGU 260459Z 21004KT 10SM BKN280 25/21 A2998 RMK AO2 SLP151 T02500206 403110233


Station Type Date Time Source
KNGU Decoded METAR 2019/06/26 04:59 UTC NOAA

Norfolk, Naval Air Station, VA, United States (KNGU) 36-56-01N 076-17-45W 8M
Jun 26, 2019 - 12:59 AM EDT / 2019.06.26 0459 UTC
Wind: from the SSW (210 degrees) at 5 MPH (4 KT):0
Visibility: 10 mile(s):0
Sky conditions: mostly cloudy
Temperature: 77.0 F (25.0 C)
Dew Point: 69.1 F (20.6 C)
Relative Humidity: 76%
Pressure (altimeter): 29.98 in. Hg (1015 hPa)
ob: KNGU 260459Z 21004KT 10SM BKN280 25/21 A2998 RMK AO2 SLP151 T02500206 403110233
cycle: 5

Station Type Date Time Source
KNGU TAF 2019/06/25 23:52 UTC NOAA

TAF KNGU 2523/2623 VRB04KT 9999 SCT050 BKN090 BKN280 QNH2988INS
FM260700 36006KT 9999 FEW040 SCT050 SCT260 QNH2995INS
FM261200 02008KT 9999 FEW030 SCT250 QNH3005INS
FM262000 VRB04KT 9999 FEW250 QNH3006INS T23/2608Z T31/2618Z FN00062

Example: see airport list